sensor_id;sensor_type;location;lat;lon;timestamp;temperature;humidity
12370;DHT22;6249;52.128;9.986;2022-07-29T00:00:19;18.40;93.60
12370;DHT22;6249;52.128;9.986;2022-07-29T00:03:40;18.40;94.30
12370;DHT22;6249;52.128;9.986;2022-07-29T00:07:01;18.30;93.80
12370;DHT22;6249;52.128;9.986;2022-07-29T00:10:21;18.30;94.30
12370;DHT22;6249;52.128;9.986;2022-07-29T00:13:42;18.30;94.90
12370;DHT22;6249;52.128;9.986;2022-07-29T00:17:03;18.20;94.00
12370;DHT22;6249;52.128;9.986;2022-07-29T00:20:23;18.20;94.90
12370;DHT22;6249;52.128;9.986;2022-07-29T00:23:46;18.30;94.70
12370;DHT22;6249;52.128;9.986;2022-07-29T00:27:09;18.20;94.90
12370;DHT22;6249;52.128;9.986;2022-07-29T00:30:30;18.20;95.40
12370;DHT22;6249;52.128;9.986;2022-07-29T00:33:52;18.10;95.30
12370;DHT22;6249;52.128;9.986;2022-07-29T00:37:13;18.10;95.60
12370;DHT22;6249;52.128;9.986;2022-07-29T00:40:36;18.10;95.40
12370;DHT22;6249;52.128;9.986;2022-07-29T00:43:57;18.10;95.80
12370;DHT22;6249;52.128;9.986;2022-07-29T00:47:20;18.00;96.00
12370;DHT22;6249;52.128;9.986;2022-07-29T00:50:44;17.90;96.50
12370;DHT22;6249;52.128;9.986;2022-07-29T00:54:07;17.90;96.90
12370;DHT22;6249;52.128;9.986;2022-07-29T00:57:28;17.80;97.60
12370;DHT22;6249;52.128;9.986;2022-07-29T01:00:49;17.80;97.70
12370;DHT22;6249;52.128;9.986;2022-07-29T01:04:09;17.80;98.50
12370;DHT22;6249;52.128;9.986;2022-07-29T01:07:32;17.70;99.20
12370;DHT22;6249;52.128;9.986;2022-07-29T01:10:55;17.70;99.50
12370;DHT22;6249;52.128;9.986;2022-07-29T01:14:19;17.70;99.90
12370;DHT22;6249;52.128;9.986;2022-07-29T01:21:57;17.60;99.90
12370;DHT22;6249;52.128;9.986;2022-07-29T01:32:37;17.40;99.90
12370;DHT22;6249;52.128;9.986;2022-07-29T01:36:07;17.40;99.90
12370;DHT22;6249;52.128;9.986;2022-07-29T01:39:32;17.30;99.90
12370;DHT22;6249;52.128;9.986;2022-07-29T01:42:56;17.20;99.90
12370;DHT22;6249;52.128;9.986;2022-07-29T01:46:31;17.30;99.90
12370;DHT22;6249;52.128;9.986;2022-07-29T01:49:58;17.20;99.90
12370;DHT22;6249;52.128;9.986;2022-07-29T01:53:36;17.30;99.90
12370;DHT22;6249;52.128;9.986;2022-07-29T01:57:02;17.20;99.90
12370;DHT22;6249;52.128;9.986;2022-07-29T02:00:25;17.20;99.90
12370;DHT22;6249;52.128;9.986;2022-07-29T02:03:47;17.10;99.90
12370;DHT22;6249;52.128;9.986;2022-07-29T02:07:13;17.00;99.90
12370;DHT22;6249;52.128;9.986;2022-07-29T02:10:40;17.00;99.90
12370;DHT22;6249;52.128;9.986;2022-07-29T02:14:03;16.90;99.90
12370;DHT22;6249;52.128;9.986;2022-07-29T02:17:29;16.90;99.90
12370;DHT22;6249;52.128;9.986;2022-07-29T02:20:55;16.90;99.90
12370;DHT22;6249;52.128;9.986;2022-07-29T02:24:18;16.90;99.90
12370;DHT22;6249;52.128;9.986;2022-07-29T02:27:41;17.00;99.90
12370;DHT22;6249;52.128;9.986;2022-07-29T02:31:06;17.00;99.90
12370;DHT22;6249;52.128;9.986;2022-07-29T02:34:28;17.00;99.90
12370;DHT22;6249;52.128;9.986;2022-07-29T02:37:50;17.00;99.90
12370;DHT22;6249;52.128;9.986;2022-07-29T02:41:37;17.00;99.90
12370;DHT22;6249;52.128;9.986;2022-07-29T02:45:03;17.00;99.90
12370;DHT22;6249;52.128;9.986;2022-07-29T02:48:36;17.10;99.90
12370;DHT22;6249;52.128;9.986;2022-07-29T02:55:40;17.00;99.90
12370;DHT22;6249;52.128;9.986;2022-07-29T02:59:09;17.10;99.90
12370;DHT22;6249;52.128;9.986;2022-07-29T03:02:39;17.10;99.90
12370;DHT22;6249;52.128;9.986;2022-07-29T03:06:01;17.00;99.90
12370;DHT22;6249;52.128;9.986;2022-07-29T03:09:23;17.00;99.90
12370;DHT22;6249;52.128;9.986;2022-07-29T03:12:47;17.00;99.90
12370;DHT22;6249;52.128;9.986;2022-07-29T03:16:11;17.00;99.90
12370;DHT22;6249;52.128;9.986;2022-07-29T03:19:33;16.90;99.90
12370;DHT22;6249;52.128;9.986;2022-07-29T03:22:54;16.90;99.90
12370;DHT22;6249;52.128;9.986;2022-07-29T03:26:15;16.80;99.90
12370;DHT22;6249;52.128;9.986;2022-07-29T03:29:38;16.80;99.90
12370;DHT22;6249;52.128;9.986;2022-07-29T03:32:58;16.80;99.90
12370;DHT22;6249;52.128;9.986;2022-07-29T03:36:19;16.80;99.90
12370;DHT22;6249;52.128;9.986;2022-07-29T03:39:43;16.70;99.90
12370;DHT22;6249;52.128;9.986;2022-07-29T03:43:05;16.70;99.90
12370;DHT22;6249;52.128;9.986;2022-07-29T03:46:29;16.70;99.90
12370;DHT22;6249;52.128;9.986;2022-07-29T03:49:52;16.70;99.90
12370;DHT22;6249;52.128;9.986;2022-07-29T03:53:14;16.70;99.90
12370;DHT22;6249;52.128;9.986;2022-07-29T03:56:42;16.70;99.90
12370;DHT22;6249;52.128;9.986;2022-07-29T04:00:07;16.60;99.90
12370;DHT22;6249;52.128;9.986;2022-07-29T04:03:28;16.70;99.90
12370;DHT22;6249;52.128;9.986;2022-07-29T04:06:51;16.70;99.90
12370;DHT22;6249;52.128;9.986;2022-07-29T04:10:11;16.60;99.90
12370;DHT22;6249;52.128;9.986;2022-07-29T04:13:32;16.60;99.90
12370;DHT22;6249;52.128;9.986;2022-07-29T04:16:53;16.70;99.90
12370;DHT22;6249;52.128;9.986;2022-07-29T04:20:14;16.70;99.90
12370;DHT22;6249;52.128;9.986;2022-07-29T04:23:34;16.70;99.90
12370;DHT22;6249;52.128;9.986;2022-07-29T04:26:55;16.60;99.90
12370;DHT22;6249;52.128;9.986;2022-07-29T04:30:18;16.60;99.90
12370;DHT22;6249;52.128;9.986;2022-07-29T04:33:39;16.50;99.90
12370;DHT22;6249;52.128;9.986;2022-07-29T04:37:02;16.50;99.90
12370;DHT22;6249;52.128;9.986;2022-07-29T04:40:23;16.60;99.90
12370;DHT22;6249;52.128;9.986;2022-07-29T04:43:46;16.60;99.90
12370;DHT22;6249;52.128;9.986;2022-07-29T04:47:08;16.70;99.90
12370;DHT22;6249;52.128;9.986;2022-07-29T04:50:31;16.70;99.90
12370;DHT22;6249;52.128;9.986;2022-07-29T04:53:55;16.90;99.90
12370;DHT22;6249;52.128;9.986;2022-07-29T04:57:16;16.90;99.90
12370;DHT22;6249;52.128;9.986;2022-07-29T05:00:37;17.00;99.90
12370;DHT22;6249;52.128;9.986;2022-07-29T05:03:57;17.00;99.90
12370;DHT22;6249;52.128;9.986;2022-07-29T05:07:18;17.10;99.90
12370;DHT22;6249;52.128;9.986;2022-07-29T05:10:41;17.20;99.90
12370;DHT22;6249;52.128;9.986;2022-07-29T05:14:01;17.30;99.90
12370;DHT22;6249;52.128;9.986;2022-07-29T05:17:24;17.30;99.90
12370;DHT22;6249;52.128;9.986;2022-07-29T05:20:45;17.40;99.90
12370;DHT22;6249;52.128;9.986;2022-07-29T05:24:05;17.40;99.90
12370;DHT22;6249;52.128;9.986;2022-07-29T05:27:26;17.50;99.90
12370;DHT22;6249;52.128;9.986;2022-07-29T05:30:49;17.50;99.90
12370;DHT22;6249;52.128;9.986;2022-07-29T05:34:09;17.50;99.90
12370;DHT22;6249;52.128;9.986;2022-07-29T05:37:30;17.50;99.90
12370;DHT22;6249;52.128;9.986;2022-07-29T05:40:51;17.60;99.90
12370;DHT22;6249;52.128;9.986;2022-07-29T05:44:11;17.60;99.90
12370;DHT22;6249;52.128;9.986;2022-07-29T05:47:36;17.70;99.90
12370;DHT22;6249;52.128;9.986;2022-07-29T05:50:56;17.80;99.90
12370;DHT22;6249;52.128;9.986;2022-07-29T05:54:19;17.90;99.90
12370;DHT22;6249;52.128;9.986;2022-07-29T05:57:41;17.90;99.90
12370;DHT22;6249;52.128;9.986;2022-07-29T06:01:05;18.10;99.90
12370;DHT22;6249;52.128;9.986;2022-07-29T06:04:26;18.10;99.90
12370;DHT22;6249;52.128;9.986;2022-07-29T06:07:49;18.00;99.90
12370;DHT22;6249;52.128;9.986;2022-07-29T06:11:12;17.90;99.90
12370;DHT22;6249;52.128;9.986;2022-07-29T06:14:33;17.90;99.90
12370;DHT22;6249;52.128;9.986;2022-07-29T06:17:53;17.90;99.90
12370;DHT22;6249;52.128;9.986;2022-07-29T06:21:14;18.10;99.90
12370;DHT22;6249;52.128;9.986;2022-07-29T06:24:37;18.30;99.90
12370;DHT22;6249;52.128;9.986;2022-07-29T06:28:01;18.50;99.90
12370;DHT22;6249;52.128;9.986;2022-07-29T06:31:22;18.80;99.90
12370;DHT22;6249;52.128;9.986;2022-07-29T06:34:43;19.00;99.90
12370;DHT22;6249;52.128;9.986;2022-07-29T06:38:03;19.10;99.90
12370;DHT22;6249;52.128;9.986;2022-07-29T06:41:26;19.30;99.90
12370;DHT22;6249;52.128;9.986;2022-07-29T06:44:49;19.40;99.90
12370;DHT22;6249;52.128;9.986;2022-07-29T06:48:12;19.50;99.90
12370;DHT22;6249;52.128;9.986;2022-07-29T06:51:33;19.70;99.90
12370;DHT22;6249;52.128;9.986;2022-07-29T06:54:54;20.00;99.70
12370;DHT22;6249;52.128;9.986;2022-07-29T06:58:17;20.10;99.30
12370;DHT22;6249;52.128;9.986;2022-07-29T07:01:43;20.40;98.90
12370;DHT22;6249;52.128;9.986;2022-07-29T07:05:06;20.60;98.90
12370;DHT22;6249;52.128;9.986;2022-07-29T07:08:29;20.50;98.30
12370;DHT22;6249;52.128;9.986;2022-07-29T07:11:49;20.60;98.50
12370;DHT22;6249;52.128;9.986;2022-07-29T07:15:12;20.80;98.30
12370;DHT22;6249;52.128;9.986;2022-07-29T07:18:35;21.00;98.20
12370;DHT22;6249;52.128;9.986;2022-07-29T07:21:58;21.10;96.90
12370;DHT22;6249;52.128;9.986;2022-07-29T07:25:19;21.10;97.30
12370;DHT22;6249;52.128;9.986;2022-07-29T07:28:39;21.30;96.20
12370;DHT22;6249;52.128;9.986;2022-07-29T07:32:00;21.60;95.70
12370;DHT22;6249;52.128;9.986;2022-07-29T07:35:25;21.80;95.40
12370;DHT22;6249;52.128;9.986;2022-07-29T07:38:48;21.90;95.80
12370;DHT22;6249;52.128;9.986;2022-07-29T07:42:11;22.00;95.60
12370;DHT22;6249;52.128;9.986;2022-07-29T07:45:33;22.00;96.00
12370;DHT22;6249;52.128;9.986;2022-07-29T07:48:53;21.90;95.90
12370;DHT22;6249;52.128;9.986;2022-07-29T07:52:16;22.00;96.30
12370;DHT22;6249;52.128;9.986;2022-07-29T07:55:43;22.20;94.90
12370;DHT22;6249;52.128;9.986;2022-07-29T07:59:04;22.50;93.50
12370;DHT22;6249;52.128;9.986;2022-07-29T08:02:27;22.60;95.00
12370;DHT22;6249;52.128;9.986;2022-07-29T08:05:48;22.60;95.20
12370;DHT22;6249;52.128;9.986;2022-07-29T08:09:10;22.60;94.00
12370;DHT22;6249;52.128;9.986;2022-07-29T08:12:31;22.70;94.20
12370;DHT22;6249;52.128;9.986;2022-07-29T08:15:52;22.90;93.20
12370;DHT22;6249;52.128;9.986;2022-07-29T08:19:19;22.90;93.10
12370;DHT22;6249;52.128;9.986;2022-07-29T08:22:40;22.80;93.60
12370;DHT22;6249;52.128;9.986;2022-07-29T08:26:00;22.80;93.80
12370;DHT22;6249;52.128;9.986;2022-07-29T08:29:21;22.80;93.80
12370;DHT22;6249;52.128;9.986;2022-07-29T08:32:42;22.90;92.70
12370;DHT22;6249;52.128;9.986;2022-07-29T08:36:05;23.00;93.00
12370;DHT22;6249;52.128;9.986;2022-07-29T08:39:30;23.00;93.80
12370;DHT22;6249;52.128;9.986;2022-07-29T08:42:51;23.10;92.90
12370;DHT22;6249;52.128;9.986;2022-07-29T08:46:12;23.20;92.10
12370;DHT22;6249;52.128;9.986;2022-07-29T08:49:34;23.30;92.40
12370;DHT22;6249;52.128;9.986;2022-07-29T08:52:55;23.40;94.10
12370;DHT22;6249;52.128;9.986;2022-07-29T08:56:16;23.70;92.10
12370;DHT22;6249;52.128;9.986;2022-07-29T08:59:42;23.80;91.60
12370;DHT22;6249;52.128;9.986;2022-07-29T09:03:05;23.90;93.10
12370;DHT22;6249;52.128;9.986;2022-07-29T09:06:29;24.20;92.30
12370;DHT22;6249;52.128;9.986;2022-07-29T09:09:52;24.50;90.10
12370;DHT22;6249;52.128;9.986;2022-07-29T09:13:13;24.70;89.80
12370;DHT22;6249;52.128;9.986;2022-07-29T09:20:11;24.90;89.80
12370;DHT22;6249;52.128;9.986;2022-07-29T09:23:34;24.70;87.90
12370;DHT22;6249;52.128;9.986;2022-07-29T09:26:58;24.70;89.10
12370;DHT22;6249;52.128;9.986;2022-07-29T09:30:21;24.90;87.70
12370;DHT22;6249;52.128;9.986;2022-07-29T09:33:42;25.00;88.40
12370;DHT22;6249;52.128;9.986;2022-07-29T09:37:03;25.20;85.70
12370;DHT22;6249;52.128;9.986;2022-07-29T09:40:26;25.30;86.80
12370;DHT22;6249;52.128;9.986;2022-07-29T09:43:54;25.50;84.00
12370;DHT22;6249;52.128;9.986;2022-07-29T09:47:16;25.80;82.30
12370;DHT22;6249;52.128;9.986;2022-07-29T09:50:39;25.60;84.20
12370;DHT22;6249;52.128;9.986;2022-07-29T09:54:24;25.50;83.80
12370;DHT22;6249;52.128;9.986;2022-07-29T09:57:46;25.40;83.80
12370;DHT22;6249;52.128;9.986;2022-07-29T10:01:10;25.70;84.00
12370;DHT22;6249;52.128;9.986;2022-07-29T10:04:41;25.90;86.30
12370;DHT22;6249;52.128;9.986;2022-07-29T10:08:02;26.40;84.60
12370;DHT22;6249;52.128;9.986;2022-07-29T10:11:22;26.50;85.60
12370;DHT22;6249;52.128;9.986;2022-07-29T10:14:45;27.00;81.00
12370;DHT22;6249;52.128;9.986;2022-07-29T10:18:08;26.90;80.40
12370;DHT22;6249;52.128;9.986;2022-07-29T10:21:29;26.70;81.20
12370;DHT22;6249;52.128;9.986;2022-07-29T10:24:50;26.70;84.50
12370;DHT22;6249;52.128;9.986;2022-07-29T10:28:13;26.80;79.30
12370;DHT22;6249;52.128;9.986;2022-07-29T10:31:44;26.90;79.20
12370;DHT22;6249;52.128;9.986;2022-07-29T10:35:28;26.70;78.20
12370;DHT22;6249;52.128;9.986;2022-07-29T10:39:11;26.70;77.30
12370;DHT22;6249;52.128;9.986;2022-07-29T10:42:41;26.40;79.50
12370;DHT22;6249;52.128;9.986;2022-07-29T10:46:03;26.40;80.20
12370;DHT22;6249;52.128;9.986;2022-07-29T10:49:28;26.20;79.40
12370;DHT22;6249;52.128;9.986;2022-07-29T11:03:47;25.90;82.80
12370;DHT22;6249;52.128;9.986;2022-07-29T11:07:13;25.90;81.10
12370;DHT22;6249;52.128;9.986;2022-07-29T11:10:36;25.80;81.50
12370;DHT22;6249;52.128;9.986;2022-07-29T11:13:59;25.60;84.00
12370;DHT22;6249;52.128;9.986;2022-07-29T11:17:20;25.70;84.10
12370;DHT22;6249;52.128;9.986;2022-07-29T11:20:48;25.60;84.00
12370;DHT22;6249;52.128;9.986;2022-07-29T11:24:14;25.30;85.30
12370;DHT22;6249;52.128;9.986;2022-07-29T11:27:35;25.10;86.50
12370;DHT22;6249;52.128;9.986;2022-07-29T11:31:00;25.00;88.00
12370;DHT22;6249;52.128;9.986;2022-07-29T11:34:25;25.00;87.80
12370;DHT22;6249;52.128;9.986;2022-07-29T11:37:46;25.00;87.30
12370;DHT22;6249;52.128;9.986;2022-07-29T11:41:23;25.00;87.80
12370;DHT22;6249;52.128;9.986;2022-07-29T11:48:19;24.90;90.50
12370;DHT22;6249;52.128;9.986;2022-07-29T11:51:40;25.10;90.00
12370;DHT22;6249;52.128;9.986;2022-07-29T11:55:06;25.20;88.00
12370;DHT22;6249;52.128;9.986;2022-07-29T11:58:30;25.20;88.70
12370;DHT22;6249;52.128;9.986;2022-07-29T12:01:58;25.30;87.90
12370;DHT22;6249;52.128;9.986;2022-07-29T12:05:20;25.40;88.30
12370;DHT22;6249;52.128;9.986;2022-07-29T12:08:43;25.50;88.50
12370;DHT22;6249;52.128;9.986;2022-07-29T12:12:04;25.70;89.30
12370;DHT22;6249;52.128;9.986;2022-07-29T12:15:26;25.90;86.30
12370;DHT22;6249;52.128;9.986;2022-07-29T12:19:00;26.00;86.90
12370;DHT22;6249;52.128;9.986;2022-07-29T12:22:34;26.20;86.20
12370;DHT22;6249;52.128;9.986;2022-07-29T12:25:55;26.20;86.90
12370;DHT22;6249;52.128;9.986;2022-07-29T12:29:17;26.20;86.60
12370;DHT22;6249;52.128;9.986;2022-07-29T12:32:46;26.40;86.00
12370;DHT22;6249;52.128;9.986;2022-07-29T12:36:07;26.40;85.90
12370;DHT22;6249;52.128;9.986;2022-07-29T12:39:28;26.50;85.10
12370;DHT22;6249;52.128;9.986;2022-07-29T12:46:29;26.80;84.10
12370;DHT22;6249;52.128;9.986;2022-07-29T12:50:07;27.00;87.20
12370;DHT22;6249;52.128;9.986;2022-07-29T12:53:30;27.40;88.00
12370;DHT22;6249;52.128;9.986;2022-07-29T12:56:58;27.70;83.00
12370;DHT22;6249;52.128;9.986;2022-07-29T13:00:24;27.80;83.60
12370;DHT22;6249;52.128;9.986;2022-07-29T13:03:54;28.20;78.90
12370;DHT22;6249;52.128;9.986;2022-07-29T13:07:27;28.30;79.10
12370;DHT22;6249;52.128;9.986;2022-07-29T13:10:49;28.30;76.50
12370;DHT22;6249;52.128;9.986;2022-07-29T13:14:12;28.40;76.90
12370;DHT22;6249;52.128;9.986;2022-07-29T13:17:40;28.30;76.60
12370;DHT22;6249;52.128;9.986;2022-07-29T13:21:14;28.40;73.30
12370;DHT22;6249;52.128;9.986;2022-07-29T13:24:55;28.70;70.80
12370;DHT22;6249;52.128;9.986;2022-07-29T13:28:16;29.10;69.20
12370;DHT22;6249;52.128;9.986;2022-07-29T13:31:36;29.90;66.50
12370;DHT22;6249;52.128;9.986;2022-07-29T13:34:59;30.70;58.70
12370;DHT22;6249;52.128;9.986;2022-07-29T13:38:22;31.70;60.10
12370;DHT22;6249;52.128;9.986;2022-07-29T13:41:43;32.70;53.90
12370;DHT22;6249;52.128;9.986;2022-07-29T13:45:09;33.40;49.70
12370;DHT22;6249;52.128;9.986;2022-07-29T13:48:33;33.40;49.20
12370;DHT22;6249;52.128;9.986;2022-07-29T13:51:56;33.20;48.50
12370;DHT22;6249;52.128;9.986;2022-07-29T13:55:17;33.30;47.20
12370;DHT22;6249;52.128;9.986;2022-07-29T13:58:42;33.70;45.70
12370;DHT22;6249;52.128;9.986;2022-07-29T14:02:03;34.00;45.70
12370;DHT22;6249;52.128;9.986;2022-07-29T14:05:24;34.40;45.50
12370;DHT22;6249;52.128;9.986;2022-07-29T14:08:44;35.70;44.00
12370;DHT22;6249;52.128;9.986;2022-07-29T14:12:05;36.80;41.80
12370;DHT22;6249;52.128;9.986;2022-07-29T14:15:28;37.70;39.70
12370;DHT22;6249;52.128;9.986;2022-07-29T14:18:51;37.30;38.60
12370;DHT22;6249;52.128;9.986;2022-07-29T14:22:12;37.10;38.80
12370;DHT22;6249;52.128;9.986;2022-07-29T14:25:32;37.40;38.30
12370;DHT22;6249;52.128;9.986;2022-07-29T14:28:53;36.80;39.00
12370;DHT22;6249;52.128;9.986;2022-07-29T14:32:14;37.20;37.60
12370;DHT22;6249;52.128;9.986;2022-07-29T14:35:37;37.00;37.60
12370;DHT22;6249;52.128;9.986;2022-07-29T14:39:00;36.80;38.60
12370;DHT22;6249;52.128;9.986;2022-07-29T14:42:21;36.30;38.40
12370;DHT22;6249;52.128;9.986;2022-07-29T14:45:41;35.80;38.20
12370;DHT22;6249;52.128;9.986;2022-07-29T14:49:02;35.10;39.70
12370;DHT22;6249;52.128;9.986;2022-07-29T14:52:23;34.50;39.80
12370;DHT22;6249;52.128;9.986;2022-07-29T14:55:44;34.10;40.30
12370;DHT22;6249;52.128;9.986;2022-07-29T14:59:04;33.60;41.40
12370;DHT22;6249;52.128;9.986;2022-07-29T15:02:28;32.90;42.10
12370;DHT22;6249;52.128;9.986;2022-07-29T15:05:51;32.70;43.70
12370;DHT22;6249;52.128;9.986;2022-07-29T15:09:17;32.50;42.00
12370;DHT22;6249;52.128;9.986;2022-07-29T15:12:38;31.90;43.00
12370;DHT22;6249;52.128;9.986;2022-07-29T15:16:01;31.50;43.60
12370;DHT22;6249;52.128;9.986;2022-07-29T15:19:24;31.20;43.40
12370;DHT22;6249;52.128;9.986;2022-07-29T15:22:47;31.00;43.50
12370;DHT22;6249;52.128;9.986;2022-07-29T15:26:08;30.70;44.10
12370;DHT22;6249;52.128;9.986;2022-07-29T15:29:28;30.40;44.60
12370;DHT22;6249;52.128;9.986;2022-07-29T15:32:51;30.20;44.80
12370;DHT22;6249;52.128;9.986;2022-07-29T15:36:12;29.90;45.60
12370;DHT22;6249;52.128;9.986;2022-07-29T15:39:32;29.80;47.10
12370;DHT22;6249;52.128;9.986;2022-07-29T15:42:53;29.60;46.70
12370;DHT22;6249;52.128;9.986;2022-07-29T15:46:18;29.40;47.00
12370;DHT22;6249;52.128;9.986;2022-07-29T15:49:57;29.20;46.80
12370;DHT22;6249;52.128;9.986;2022-07-29T15:53:18;29.10;48.90
12370;DHT22;6249;52.128;9.986;2022-07-29T15:56:38;28.90;48.60
12370;DHT22;6249;52.128;9.986;2022-07-29T15:59:59;28.80;48.70
12370;DHT22;6249;52.128;9.986;2022-07-29T16:03:20;28.90;49.70
12370;DHT22;6249;52.128;9.986;2022-07-29T16:06:44;28.90;48.50
12370;DHT22;6249;52.128;9.986;2022-07-29T16:10:08;28.90;47.80
12370;DHT22;6249;52.128;9.986;2022-07-29T16:13:28;28.70;48.70
12370;DHT22;6249;52.128;9.986;2022-07-29T16:16:51;28.60;49.60
12370;DHT22;6249;52.128;9.986;2022-07-29T16:20:12;28.40;50.20
12370;DHT22;6249;52.128;9.986;2022-07-29T16:23:33;28.40;50.20
12370;DHT22;6249;52.128;9.986;2022-07-29T16:26:54;28.30;49.00
12370;DHT22;6249;52.128;9.986;2022-07-29T16:30:17;28.10;49.30
12370;DHT22;6249;52.128;9.986;2022-07-29T16:33:40;28.00;50.10
12370;DHT22;6249;52.128;9.986;2022-07-29T16:37:05;27.90;49.60
12370;DHT22;6249;52.128;9.986;2022-07-29T16:40:26;27.80;50.20
12370;DHT22;6249;52.128;9.986;2022-07-29T16:43:48;27.60;50.40
12370;DHT22;6249;52.128;9.986;2022-07-29T16:47:09;27.40;50.70
12370;DHT22;6249;52.128;9.986;2022-07-29T16:50:30;27.40;51.30
12370;DHT22;6249;52.128;9.986;2022-07-29T16:53:51;27.20;52.50
12370;DHT22;6249;52.128;9.986;2022-07-29T16:57:12;27.00;51.70
12370;DHT22;6249;52.128;9.986;2022-07-29T17:00:33;26.90;52.50
12370;DHT22;6249;52.128;9.986;2022-07-29T17:03:53;26.80;53.60
12370;DHT22;6249;52.128;9.986;2022-07-29T17:07:30;26.70;53.30
12370;DHT22;6249;52.128;9.986;2022-07-29T17:10:51;26.70;53.30
12370;DHT22;6249;52.128;9.986;2022-07-29T17:14:12;26.70;53.30
12370;DHT22;6249;52.128;9.986;2022-07-29T17:17:32;26.70;53.30
12370;DHT22;6249;52.128;9.986;2022-07-29T17:20:53;26.70;53.30
12370;DHT22;6249;52.128;9.986;2022-07-29T17:24:14;26.70;53.80
12370;DHT22;6249;52.128;9.986;2022-07-29T17:27:35;26.60;54.20
12370;DHT22;6249;52.128;9.986;2022-07-29T17:30:55;26.50;55.20
12370;DHT22;6249;52.128;9.986;2022-07-29T17:34:16;26.40;55.70
12370;DHT22;6249;52.128;9.986;2022-07-29T17:37:37;26.30;55.40
12370;DHT22;6249;52.128;9.986;2022-07-29T17:41:00;26.30;56.00
12370;DHT22;6249;52.128;9.986;2022-07-29T17:44:23;26.30;56.40
12370;DHT22;6249;52.128;9.986;2022-07-29T17:47:44;26.30;56.90
12370;DHT22;6249;52.128;9.986;2022-07-29T17:51:07;26.30;56.10
12370;DHT22;6249;52.128;9.986;2022-07-29T17:54:30;26.20;56.30
12370;DHT22;6249;52.128;9.986;2022-07-29T17:57:53;26.10;56.50
12370;DHT22;6249;52.128;9.986;2022-07-29T18:01:16;25.90;56.80
12370;DHT22;6249;52.128;9.986;2022-07-29T18:04:39;25.90;56.90
12370;DHT22;6249;52.128;9.986;2022-07-29T18:08:00;25.80;57.60
12370;DHT22;6249;52.128;9.986;2022-07-29T18:11:21;25.70;57.70
12370;DHT22;6249;52.128;9.986;2022-07-29T18:14:44;25.60;57.70
12370;DHT22;6249;52.128;9.986;2022-07-29T18:18:05;25.50;58.50
12370;DHT22;6249;52.128;9.986;2022-07-29T18:21:26;25.40;58.90
12370;DHT22;6249;52.128;9.986;2022-07-29T18:24:48;25.30;59.00
12370;DHT22;6249;52.128;9.986;2022-07-29T18:28:08;25.20;59.70
12370;DHT22;6249;52.128;9.986;2022-07-29T18:31:29;25.10;60.60
12370;DHT22;6249;52.128;9.986;2022-07-29T18:34:50;25.10;60.40
12370;DHT22;6249;52.128;9.986;2022-07-29T18:38:10;25.00;61.00
12370;DHT22;6249;52.128;9.986;2022-07-29T18:41:31;25.00;61.20
12370;DHT22;6249;52.128;9.986;2022-07-29T18:44:52;25.00;61.60
12370;DHT22;6249;52.128;9.986;2022-07-29T18:48:14;25.00;62.70
12370;DHT22;6249;52.128;9.986;2022-07-29T18:51:35;24.90;62.60
12370;DHT22;6249;52.128;9.986;2022-07-29T18:54:57;24.80;63.20
12370;DHT22;6249;52.128;9.986;2022-07-29T18:58:18;24.70;63.90
12370;DHT22;6249;52.128;9.986;2022-07-29T19:01:45;24.70;65.30
12370;DHT22;6249;52.128;9.986;2022-07-29T19:05:07;24.70;65.10
12370;DHT22;6249;52.128;9.986;2022-07-29T19:08:28;24.50;65.10
12370;DHT22;6249;52.128;9.986;2022-07-29T19:11:51;24.40;65.90
12370;DHT22;6249;52.128;9.986;2022-07-29T19:15:12;24.30;66.70
12370;DHT22;6249;52.128;9.986;2022-07-29T19:18:33;24.30;66.90
12370;DHT22;6249;52.128;9.986;2022-07-29T19:21:54;24.30;66.50
12370;DHT22;6249;52.128;9.986;2022-07-29T19:25:14;24.20;67.30
12370;DHT22;6249;52.128;9.986;2022-07-29T19:28:35;24.30;68.80
12370;DHT22;6249;52.128;9.986;2022-07-29T19:31:55;24.20;69.70
12370;DHT22;6249;52.128;9.986;2022-07-29T19:35:16;24.20;71.00
12370;DHT22;6249;52.128;9.986;2022-07-29T19:38:51;24.20;71.20
12370;DHT22;6249;52.128;9.986;2022-07-29T19:42:14;24.10;69.10
12370;DHT22;6249;52.128;9.986;2022-07-29T19:45:35;24.10;69.00
12370;DHT22;6249;52.128;9.986;2022-07-29T19:48:56;24.10;69.10
12370;DHT22;6249;52.128;9.986;2022-07-29T19:52:16;24.10;70.00
12370;DHT22;6249;52.128;9.986;2022-07-29T19:55:39;24.10;70.10
12370;DHT22;6249;52.128;9.986;2022-07-29T19:59:01;24.10;70.40
12370;DHT22;6249;52.128;9.986;2022-07-29T20:02:22;24.10;71.20
12370;DHT22;6249;52.128;9.986;2022-07-29T20:05:43;24.00;73.10
12370;DHT22;6249;52.128;9.986;2022-07-29T20:09:03;24.00;72.20
12370;DHT22;6249;52.128;9.986;2022-07-29T20:12:27;23.90;72.80
12370;DHT22;6249;52.128;9.986;2022-07-29T20:15:48;23.80;73.60
12370;DHT22;6249;52.128;9.986;2022-07-29T20:19:09;23.80;75.20
12370;DHT22;6249;52.128;9.986;2022-07-29T20:22:33;23.60;76.70
12370;DHT22;6249;52.128;9.986;2022-07-29T20:25:53;23.60;76.70
12370;DHT22;6249;52.128;9.986;2022-07-29T20:29:15;23.60;75.50
12370;DHT22;6249;52.128;9.986;2022-07-29T20:32:36;23.50;76.80
12370;DHT22;6249;52.128;9.986;2022-07-29T20:35:56;23.50;79.90
12370;DHT22;6249;52.128;9.986;2022-07-29T20:39:17;23.40;84.50
12370;DHT22;6249;52.128;9.986;2022-07-29T20:42:42;23.30;94.80
12370;DHT22;6249;52.128;9.986;2022-07-29T20:46:03;22.90;99.90
12370;DHT22;6249;52.128;9.986;2022-07-29T20:49:24;22.60;99.90
12370;DHT22;6249;52.128;9.986;2022-07-29T20:52:47;22.40;99.90
12370;DHT22;6249;52.128;9.986;2022-07-29T20:56:09;22.10;99.90
12370;DHT22;6249;52.128;9.986;2022-07-29T20:59:32;21.80;99.90
12370;DHT22;6249;52.128;9.986;2022-07-29T21:02:53;21.60;99.90
12370;DHT22;6249;52.128;9.986;2022-07-29T21:06:14;21.50;99.90
12370;DHT22;6249;52.128;9.986;2022-07-29T21:09:35;21.40;99.90
12370;DHT22;6249;52.128;9.986;2022-07-29T21:12:56;21.30;99.90
12370;DHT22;6249;52.128;9.986;2022-07-29T21:16:17;21.10;99.90
12370;DHT22;6249;52.128;9.986;2022-07-29T21:19:42;21.00;99.90
12370;DHT22;6249;52.128;9.986;2022-07-29T21:23:02;20.80;99.90
12370;DHT22;6249;52.128;9.986;2022-07-29T21:26:23;20.80;99.90
12370;DHT22;6249;52.128;9.986;2022-07-29T21:29:46;20.70;99.90
12370;DHT22;6249;52.128;9.986;2022-07-29T21:33:09;20.70;99.90
12370;DHT22;6249;52.128;9.986;2022-07-29T21:36:32;20.60;99.90
12370;DHT22;6249;52.128;9.986;2022-07-29T21:39:55;20.60;99.90
12370;DHT22;6249;52.128;9.986;2022-07-29T21:43:16;20.60;99.90
12370;DHT22;6249;52.128;9.986;2022-07-29T21:46:43;20.60;99.90
12370;DHT22;6249;52.128;9.986;2022-07-29T21:50:05;20.80;99.90
12370;DHT22;6249;52.128;9.986;2022-07-29T21:53:28;20.70;99.90
12370;DHT22;6249;52.128;9.986;2022-07-29T21:56:48;20.60;99.90
12370;DHT22;6249;52.128;9.986;2022-07-29T22:00:11;20.60;99.90
12370;DHT22;6249;52.128;9.986;2022-07-29T22:03:35;20.70;99.90
12370;DHT22;6249;52.128;9.986;2022-07-29T22:06:56;20.70;99.90
12370;DHT22;6249;52.128;9.986;2022-07-29T22:10:17;20.70;99.90
12370;DHT22;6249;52.128;9.986;2022-07-29T22:13:43;20.70;99.90
12370;DHT22;6249;52.128;9.986;2022-07-29T22:17:03;20.80;99.90